Powellton, West Virginia
Current Conditions -  °F | °C
As of 2:51 PM on Friday 19 Dec 2014 (Local Time) from KBKW Reporting Station
Clear Clear  
Wind Chill: 27°   Ceiling: Unl
Heat Index: 32°   Visibility: 10mi
Dew Point: 21°   Wind: 5mph
Humidity: 64%   Direction: 310°NW
Pressure: 30.14"   Gusts: NA
Location:  38.09°N, 81.32°W
Report Text: KBKW 191951Z AUTO 31004KT 10SM CLR 00/M06 A3014 RMK AO2 SLP239 T00001061
Loading
Personal Weather Stations






























Interactive Weather Map New forecast layout! Learn more

10-Day Weather Forecast

Advertisements
Track Severe Weather on mobile